Time;durP1;ratioP1;P1;durP2;ratioP2;P2;SDS_P1;SDS_P2;PMS_P1;PMS_P2;Temp;Humidity;BMP_temperature;BMP_pressure;BME280_temperature;BME280_humidity;BME280_pressure;Samples;Min_cycle;Max_cycle;Signal;HPM_P1;HPM_P2
2023/06/20 00:00:56;;;;;;;8.33;7.57;;;20.60;92.50;;;;;;5094110;28;20954;-61
2023/06/20 00:03:23;;;;;;;9.10;8.40;;;20.60;92.80;;;;;;5093867;28;20422;-60
2023/06/20 00:05:51;;;;;;;9.37;8.57;;;20.60;93.00;;;;;;5093789;28;20803;-59
2023/06/20 00:08:17;;;;;;;8.90;8.10;;;20.50;93.20;;;;;;5093842;28;20889;-60
2023/06/20 00:10:44;;;;;;;9.43;8.47;;;20.50;93.50;;;;;;5094614;28;20439;-60
2023/06/20 00:13:11;;;;;;;9.60;8.80;;;20.40;93.80;;;;;;5095758;28;20449;-60
2023/06/20 00:15:41;;;;;;;8.70;7.97;;;20.30;94.10;;;;;;5094296;28;20795;-60
2023/06/20 00:18:07;;;;;;;10.20;9.27;;;20.30;94.50;;;;;;5094109;28;20478;-61
2023/06/20 00:20:35;;;;;;;9.27;8.57;;;20.30;94.80;;;;;;5093903;28;20453;-60
2023/06/20 00:23:03;;;;;;;9.10;8.40;;;20.20;95.10;;;;;;5093726;28;20473;-59
2023/06/20 00:25:30;;;;;;;10.27;9.47;;;20.20;95.40;;;;;;5093820;28;20450;-59
2023/06/20 00:27:57;;;;;;;9.93;9.10;;;20.20;95.80;;;;;;5096869;28;20441;-60
2023/06/20 00:30:23;;;;;;;10.20;9.30;;;20.10;96.20;;;;;;5097954;28;20537;-60
2023/06/20 00:32:50;;;;;;;10.50;9.50;;;20.10;96.50;;;;;;5097661;28;20856;-58
2023/06/20 00:35:17;;;;;;;11.40;9.97;;;20.10;96.80;;;;;;5097666;28;20442;-60
2023/06/20 00:37:44;;;;;;;11.07;10.07;;;20.10;97.10;;;;;;5098101;28;20474;-60
2023/06/20 00:40:12;;;;;;;10.27;9.37;;;20.00;97.40;;;;;;5098257;28;20438;-60
2023/06/20 00:42:39;;;;;;;10.87;9.87;;;20.00;97.90;;;;;;5097810;28;20465;-60
2023/06/20 00:45:27;;;;;;;10.90;10.00;;;20.00;98.30;;;;;;5098041;28;20442;-61
2023/06/20 00:47:53;;;;;;;10.63;9.63;;;20.00;98.60;;;;;;5097745;28;20919;-60
2023/06/20 00:50:20;;;;;;;9.97;9.17;;;19.90;99.00;;;;;;5098339;28;20440;-60
2023/06/20 00:52:48;;;;;;;10.87;9.97;;;19.90;99.40;;;;;;5098095;28;20473;-60
2023/06/20 00:55:16;;;;;;;11.40;10.30;;;19.80;99.70;;;;;;5097863;28;20445;-60
2023/06/20 00:57:45;;;;;;;11.87;10.77;;;19.80;99.90;;;;;;5097599;28;21029;-59
2023/06/20 01:00:13;;;;;;;12.00;11.00;;;19.80;99.90;;;;;;5098495;28;20449;-59
2023/06/20 01:02:46;;;;;;;12.97;11.77;;;19.70;99.90;;;;;;5097452;28;20480;-60
2023/06/20 01:05:13;;;;;;;11.03;10.13;;;19.70;99.90;;;;;;5098702;28;20477;-59
2023/06/20 01:07:45;;;;;;;10.77;9.90;;;19.70;99.90;;;;;;5098546;28;20446;-58
2023/06/20 01:10:22;;;;;;;11.70;10.60;;;19.60;99.90;;;;;;5097357;28;20904;-59
2023/06/20 01:12:55;;;;;;;11.43;10.40;;;19.60;99.90;;;;;;5097875;28;20473;-59
2023/06/20 01:15:27;;;;;;;11.73;10.70;;;19.60;99.90;;;;;;5097983;28;20426;-58
2023/06/20 01:18:02;;;;;;;12.43;11.30;;;19.60;99.90;;;;;;5096949;28;20493;-58
2023/06/20 01:20:34;;;;;;;11.27;10.37;;;19.50;99.90;;;;;;5097310;28;20429;-59
2023/06/20 01:23:08;;;;;;;11.40;10.27;;;19.50;99.90;;;;;;5096954;28;20476;-60
2023/06/20 01:25:46;;;;;;;11.60;10.53;;;19.50;99.90;;;;;;5096579;28;20808;-58
2023/06/20 01:28:20;;;;;;;13.20;10.53;;;19.40;99.90;;;;;;5096682;28;20540;-59
2023/06/20 01:30:56;;;;;;;13.20;12.10;;;19.40;99.90;;;;;;5097106;28;20444;-59
2023/06/20 01:33:27;;;;;;;11.80;10.70;;;19.40;99.90;;;;;;5096737;28;20513;-60
2023/06/20 01:35:56;;;;;;;12.80;11.50;;;19.30;99.90;;;;;;5096466;28;20430;-59
2023/06/20 01:38:27;;;;;;;11.83;10.83;;;19.30;99.90;;;;;;5095535;28;20482;-59
2023/06/20 01:40:55;;;;;;;12.50;11.23;;;19.30;99.90;;;;;;5096341;28;20430;-60
2023/06/20 01:43:23;;;;;;;13.07;11.83;;;19.30;99.90;;;;;;5096624;28;20813;-58
2023/06/20 01:45:51;;;;;;;13.37;12.17;;;19.20;99.90;;;;;;5097649;28;20967;-60
2023/06/20 01:48:20;;;;;;;12.23;11.00;;;19.20;99.90;;;;;;5098215;28;20449;-59
2023/06/20 01:50:49;;;;;;;12.43;11.23;;;19.20;99.90;;;;;;5096786;28;20442;-59
2023/06/20 01:53:16;;;;;;;12.07;11.07;;;19.20;99.90;;;;;;5096627;28;20442;-58
2023/06/20 01:55:47;;;;;;;14.30;11.90;;;19.20;99.90;;;;;;5096025;28;20449;-59
2023/06/20 01:58:15;;;;;;;14.67;11.40;;;19.20;99.90;;;;;;5095936;28;20469;-60
2023/06/20 02:00:42;;;;;;;12.47;11.47;;;19.10;99.90;;;;;;5096334;28;20446;-59
2023/06/20 02:03:11;;;;;;;12.30;11.10;;;19.10;99.90;;;;;;5102152;22;20487;-60
2023/06/20 02:05:41;;;;;;;12.93;11.80;;;19.20;99.90;;;;;;5075778;28;20535;-59
2023/06/20 02:08:09;;;;;;;13.30;12.10;;;19.10;99.90;;;;;;5076425;28;20439;-59
2023/06/20 02:10:37;;;;;;;13.40;12.20;;;19.10;99.90;;;;;;5076166;28;20944;-60
2023/06/20 02:13:06;;;;;;;12.87;11.77;;;19.10;99.90;;;;;;5092862;28;20469;-60
2023/06/20 02:15:34;;;;;;;13.63;12.40;;;19.10;99.90;;;;;;5095917;28;20457;-60
2023/06/20 02:18:02;;;;;;;12.93;11.63;;;19.10;99.90;;;;;;5096192;28;20470;-60
2023/06/20 02:20:30;;;;;;;13.10;11.80;;;19.10;99.90;;;;;;5095733;28;20959;-60
2023/06/20 02:22:57;;;;;;;12.70;11.50;;;19.10;99.90;;;;;;5095356;28;20508;-59
2023/06/20 02:25:29;;;;;;;13.87;12.53;;;19.10;99.90;;;;;;5095265;28;20439;-59
2023/06/20 02:27:57;;;;;;;13.30;12.00;;;19.00;99.90;;;;;;5095350;28;20423;-59
2023/06/20 02:30:29;;;;;;;13.60;12.40;;;19.00;99.90;;;;;;5095197;28;20446;-59
2023/06/20 02:32:58;;;;;;;13.63;12.43;;;19.00;99.90;;;;;;5094823;28;20458;-59
2023/06/20 02:35:26;;;;;;;12.70;11.57;;;18.90;99.90;;;;;;5095554;28;20438;-60
2023/06/20 02:37:55;;;;;;;14.20;12.80;;;18.90;99.90;;;;;;5096468;28;20481;-59
2023/06/20 02:40:25;;;;;;;13.87;12.53;;;18.90;99.90;;;;;;5095290;28;20453;-59
2023/06/20 02:42:52;;;;;;;13.40;12.20;;;18.90;99.90;;;;;;5095189;28;20473;-59
2023/06/20 02:45:19;;;;;;;13.20;12.00;;;18.90;99.90;;;;;;5094585;28;21021;-59
2023/06/20 02:48:01;;;;;;;14.20;12.80;;;18.90;99.90;;;;;;5094606;28;20443;-59
2023/06/20 02:50:33;;;;;;;14.10;12.00;;;18.80;99.90;;;;;;5093478;28;20900;-59
2023/06/20 02:53:07;;;;;;;15.27;13.87;;;18.90;99.90;;;;;;5096336;28;20481;-60
2023/06/20 02:55:39;;;;;;;13.73;12.50;;;18.90;99.90;;;;;;5095859;28;20429;-60
2023/06/20 02:58:12;;;;;;;13.67;12.47;;;18.90;99.90;;;;;;5095979;28;20466;-61
2023/06/20 03:00:40;;;;;;;13.83;12.53;;;18.90;99.90;;;;;;5096228;28;20900;-61
2023/06/20 03:03:12;;;;;;;14.10;12.80;;;18.90;99.90;;;;;;5095082;28;21021;-62
2023/06/20 03:05:43;;;;;;;14.00;12.70;;;18.90;99.90;;;;;;5095177;28;20484;-61
2023/06/20 03:08:11;;;;;;;13.73;12.43;;;19.00;99.90;;;;;;5094139;28;20511;-60
2023/06/20 03:10:38;;;;;;;13.87;12.53;;;19.00;99.90;;;;;;5094087;28;20971;-60
2023/06/20 03:13:05;;;;;;;13.70;12.43;;;19.00;99.90;;;;;;5093864;28;20469;-61
2023/06/20 03:15:32;;;;;;;13.73;12.33;;;19.00;99.90;;;;;;5094330;28;20454;-60
2023/06/20 03:18:00;;;;;;;14.83;13.53;;;19.10;99.90;;;;;;5094254;28;20488;-61
2023/06/20 03:20:28;;;;;;;13.90;12.50;;;19.10;99.90;;;;;;5094289;28;20442;-59
2023/06/20 03:22:55;;;;;;;14.30;12.90;;;19.10;99.90;;;;;;5093729;28;20837;-61
2023/06/20 03:25:22;;;;;;;13.50;12.10;;;19.00;99.90;;;;;;5094101;28;20472;-60
2023/06/20 03:27:48;;;;;;;13.93;12.53;;;19.10;99.90;;;;;;5094240;28;20445;-60
2023/06/20 03:30:16;;;;;;;14.80;12.77;;;19.10;99.90;;;;;;5094906;28;20457;-60
2023/06/20 03:32:43;;;;;;;14.97;13.40;;;19.00;99.90;;;;;;5095805;28;20515;-61
2023/06/20 03:35:10;;;;;;;14.73;12.47;;;19.00;99.90;;;;;;5096144;28;20808;-60
2023/06/20 03:37:38;;;;;;;14.73;11.93;;;19.00;99.90;;;;;;5096489;28;20474;-60
2023/06/20 03:40:06;;;;;;;14.03;12.73;;;19.00;99.90;;;;;;5095730;28;20450;-58
2023/06/20 03:42:33;;;;;;;13.60;12.33;;;19.10;99.90;;;;;;5095212;28;20463;-60
2023/06/20 03:45:00;;;;;;;13.93;12.63;;;19.10;99.90;;;;;;5094642;28;20443;-61
2023/06/20 03:47:27;;;;;;;13.47;12.27;;;19.10;99.90;;;;;;5095025;28;20438;-60
2023/06/20 03:49:53;;;;;;;14.60;13.20;;;19.20;99.90;;;;;;5095066;28;20446;-60
2023/06/20 03:52:20;;;;;;;14.33;13.07;;;19.30;99.90;;;;;;5093925;28;20462;-60
2023/06/20 03:54:48;;;;;;;15.67;13.77;;;19.30;99.90;;;;;;5093321;28;20453;-60
2023/06/20 03:57:15;;;;;;;15.40;13.20;;;19.40;99.90;;;;;;5093003;28;20481;-60
2023/06/20 03:59:42;;;;;;;15.17;13.67;;;19.50;99.90;;;;;;5093228;28;20442;-60
2023/06/20 04:02:09;;;;;;;13.97;12.47;;;19.60;99.90;;;;;;5092324;28;20481;-61
2023/06/20 04:04:37;;;;;;;16.47;13.90;;;19.60;99.90;;;;;;5093102;28;20438;-60
2023/06/20 04:07:03;;;;;;;14.53;13.03;;;19.70;99.90;;;;;;5092903;28;20449;-60
2023/06/20 04:11:51;;;;;;;14.93;13.33;;;19.80;99.90;;;;;;5090509;28;21075;-60
2023/06/20 04:14:18;;;;;;;13.90;12.40;;;19.80;99.90;;;;;;5090576;28;20439;-60
2023/06/20 04:16:47;;;;;;;15.77;14.27;;;19.80;99.90;;;;;;5090501;28;20442;-60
2023/06/20 04:19:14;;;;;;;16.37;14.37;;;19.80;99.90;;;;;;5090063;28;20461;-60
2023/06/20 04:21:41;;;;;;;17.03;15.37;;;19.80;99.90;;;;;;5090251;28;20501;-60
2023/06/20 04:24:08;;;;;;;16.10;13.60;;;19.90;99.90;;;;;;5090277;28;20439;-60
2023/06/20 04:26:36;;;;;;;15.90;14.00;;;19.90;99.90;;;;;;5090091;28;20460;-60
2023/06/20 04:29:04;;;;;;;16.73;15.03;;;19.90;99.90;;;;;;5090033;28;20457;-61
2023/06/20 04:31:30;;;;;;;14.63;13.23;;;20.00;99.90;;;;;;5089699;28;20485;-60
2023/06/20 04:33:58;;;;;;;16.60;15.00;;;20.00;99.90;;;;;;5089607;28;20940;-59
2023/06/20 04:36:24;;;;;;;16.97;14.93;;;20.10;99.90;;;;;;5089844;28;20438;-60
2023/06/20 04:38:51;;;;;;;16.00;14.40;;;20.20;99.90;;;;;;5089479;28;20447;-60
2023/06/20 04:41:18;;;;;;;15.83;14.27;;;20.20;99.90;;;;;;5089918;28;20442;-59
2023/06/20 04:43:45;;;;;;;15.90;14.33;;;20.30;99.90;;;;;;5089828;28;20438;-61
2023/06/20 04:46:15;;;;;;;17.00;15.20;;;20.40;99.90;;;;;;5089983;28;20442;-61
2023/06/20 04:48:44;;;;;;;16.07;14.47;;;20.50;99.90;;;;;;5090596;28;20435;-61
2023/06/20 04:51:11;;;;;;;15.33;13.90;;;20.50;99.90;;;;;;5089497;28;20485;-60
2023/06/20 04:53:38;;;;;;;14.40;13.00;;;20.60;99.90;;;;;;5089439;28;20921;-61
2023/06/20 04:56:05;;;;;;;13.47;12.23;;;20.70;99.90;;;;;;5089227;28;20933;-59
2023/06/20 04:58:32;;;;;;;17.53;14.60;;;20.70;99.90;;;;;;5089413;28;20442;-60
2023/06/20 05:00:59;;;;;;;15.97;14.27;;;20.80;99.90;;;;;;5089068;28;20434;-59
2023/06/20 05:03:28;;;;;;;13.27;12.07;;;20.80;99.90;;;;;;5089772;28;20463;-60
2023/06/20 05:05:55;;;;;;;14.50;13.10;;;20.80;99.90;;;;;;5089434;28;20442;-60
2023/06/20 05:08:21;;;;;;;14.37;13.00;;;20.80;99.90;;;;;;5089622;28;20443;-59
2023/06/20 05:10:48;;;;;;;13.70;12.23;;;20.90;99.90;;;;;;5089372;28;20505;-59
2023/06/20 05:13:15;;;;;;;16.00;13.00;;;21.00;99.90;;;;;;5089979;28;20490;-58
2023/06/20 05:15:42;;;;;;;13.57;12.17;;;21.10;99.90;;;;;;5089651;28;20973;-59
2023/06/20 05:18:09;;;;;;;14.10;12.70;;;21.20;99.90;;;;;;5089358;28;20455;-60
2023/06/20 05:20:37;;;;;;;14.37;12.97;;;21.30;99.90;;;;;;5089213;28;20443;-59
2023/06/20 05:23:04;;;;;;;13.43;12.03;;;21.40;99.90;;;;;;5076170;28;20474;-59
2023/06/20 05:25:31;;;;;;;14.33;12.80;;;21.40;99.90;;;;;;5075775;28;20459;-60
2023/06/20 05:27:58;;;;;;;17.20;11.90;;;21.50;99.90;;;;;;5076865;28;20452;-60
2023/06/20 05:30:25;;;;;;;13.43;12.03;;;21.50;99.90;;;;;;5077422;28;21079;-59
2023/06/20 05:32:52;;;;;;;13.00;11.70;;;21.50;99.90;;;;;;5078379;28;20464;-60
2023/06/20 05:35:19;;;;;;;12.90;11.70;;;21.60;99.90;;;;;;5075920;28;20452;-60
2023/06/20 05:37:49;;;;;;;14.07;12.60;;;21.60;99.90;;;;;;5076123;28;20448;-60
2023/06/20 05:40:16;;;;;;;13.60;12.20;;;21.60;99.90;;;;;;5075826;28;20441;-58
2023/06/20 05:42:43;;;;;;;14.03;12.43;;;21.60;99.90;;;;;;5075795;28;20462;-60
2023/06/20 05:45:10;;;;;;;14.50;13.00;;;21.60;99.90;;;;;;5075826;28;20448;-60
2023/06/20 05:47:37;;;;;;;15.50;12.43;;;21.50;99.90;;;;;;5075565;28;20450;-59
2023/06/20 05:50:04;;;;;;;12.87;11.67;;;21.50;99.90;;;;;;5075889;28;20450;-60
2023/06/20 05:52:31;;;;;;;12.83;11.53;;;21.50;99.90;;;;;;5076339;28;20997;-60
2023/06/20 05:55:00;;;;;;;12.37;11.17;;;21.50;99.90;;;;;;5076229;28;20458;-59
2023/06/20 05:57:26;;;;;;;14.20;10.93;;;21.40;99.90;;;;;;5076293;28;20446;-60
2023/06/20 05:59:53;;;;;;;12.80;11.60;;;21.40;99.90;;;;;;5076772;28;20472;-60
2023/06/20 06:02:21;;;;;;;11.37;10.27;;;21.40;99.90;;;;;;5077326;28;20457;-60
2023/06/20 06:04:48;;;;;;;12.80;11.50;;;21.40;99.90;;;;;;5078168;28;20449;-60
2023/06/20 06:07:15;;;;;;;12.93;11.73;;;21.40;99.90;;;;;;5076241;28;20784;-59
2023/06/20 06:09:43;;;;;;;13.40;12.20;;;21.40;99.90;;;;;;5075676;28;20799;-59
2023/06/20 06:12:11;;;;;;;14.00;11.80;;;21.40;99.90;;;;;;5075972;28;20487;-60
2023/06/20 06:14:38;;;;;;;12.93;11.63;;;21.40;99.90;;;;;;5075622;28;20449;-61
2023/06/20 06:17:06;;;;;;;13.03;11.83;;;21.40;99.90;;;;;;5075220;28;20454;-61
2023/06/20 06:19:32;;;;;;;14.40;11.97;;;21.50;99.90;;;;;;5074661;28;20457;-61
2023/06/20 06:21:59;;;;;;;12.93;11.30;;;21.50;99.90;;;;;;5074485;28;20835;-59
2023/06/20 06:24:26;;;;;;;12.40;11.20;;;21.50;99.90;;;;;;5074419;28;20449;-60
2023/06/20 06:26:52;;;;;;;12.60;11.40;;;21.60;99.90;;;;;;5074456;28;20446;-60
2023/06/20 06:29:21;;;;;;;13.37;11.97;;;21.60;99.90;;;;;;5074675;28;20454;-60
2023/06/20 06:31:48;;;;;;;12.80;11.50;;;21.70;99.90;;;;;;5074449;28;20494;-61
2023/06/20 06:34:17;;;;;;;13.10;11.90;;;21.70;99.90;;;;;;5075021;28;20900;-60
2023/06/20 06:36:49;;;;;;;11.97;10.77;;;21.80;99.90;;;;;;5078690;28;20441;-59
2023/06/20 06:39:18;;;;;;;12.77;11.57;;;21.90;99.90;;;;;;5078711;28;20434;-61
2023/06/20 06:41:51;;;;;;;12.53;11.00;;;22.00;99.90;;;;;;5079482;28;20505;-60
2023/06/20 06:44:18;;;;;;;11.70;10.60;;;22.10;99.90;;;;;;5081867;28;20460;-60
2023/06/20 06:46:46;;;;;;;10.90;9.90;;;22.20;99.90;;;;;;5077218;28;20449;-61
2023/06/20 06:49:13;;;;;;;11.77;10.67;;;22.20;99.90;;;;;;5076914;28;20450;-60
2023/06/20 06:51:41;;;;;;;12.40;11.10;;;22.20;99.90;;;;;;5075739;28;20513;-59
2023/06/20 06:54:08;;;;;;;11.70;10.70;;;22.20;99.90;;;;;;5076890;28;20453;-59
2023/06/20 06:56:35;;;;;;;11.70;10.70;;;22.20;99.90;;;;;;5074640;28;20456;-59
2023/06/20 06:59:02;;;;;;;11.60;10.50;;;22.10;99.90;;;;;;5074417;28;20450;-60
2023/06/20 07:01:29;;;;;;;18.60;10.80;;;22.10;99.90;;;;;;5074068;28;20474;-59
2023/06/20 07:03:57;;;;;;;12.50;10.50;;;22.10;99.90;;;;;;5073905;28;20450;-60
2023/06/20 07:06:24;;;;;;;12.83;10.30;;;22.10;99.90;;;;;;5073497;28;20447;-60
2023/06/20 07:08:52;;;;;;;10.57;9.47;;;22.10;99.90;;;;;;5073532;28;20464;-60
2023/06/20 07:11:19;;;;;;;10.47;9.47;;;22.20;99.90;;;;;;5073439;28;20489;-59
2023/06/20 07:13:46;;;;;;;10.20;9.23;;;22.30;99.90;;;;;;5073933;28;20442;-59
2023/06/20 07:16:12;;;;;;;9.03;8.23;;;22.50;99.90;;;;;;5073525;28;20478;-59
2023/06/20 07:18:39;;;;;;;10.00;9.10;;;22.60;99.90;;;;;;5073506;28;20830;-59
2023/06/20 07:21:07;;;;;;;10.43;9.50;;;22.70;99.90;;;;;;5073897;28;20831;-60
2023/06/20 07:23:34;;;;;;;8.63;7.93;;;22.80;99.90;;;;;;5073885;28;20908;-59
2023/06/20 07:26:01;;;;;;;7.77;7.03;;;22.90;99.90;;;;;;5073475;28;20825;-59
2023/06/20 07:28:28;;;;;;;7.30;6.70;;;23.00;99.40;;;;;;5074109;28;20446;-59
2023/06/20 07:30:55;;;;;;;8.40;7.70;;;23.00;98.80;;;;;;5073531;28;20571;-58
2023/06/20 07:33:22;;;;;;;9.37;8.47;;;23.00;98.50;;;;;;5073606;28;20467;-59
2023/06/20 07:35:49;;;;;;;7.20;6.60;;;23.10;98.20;;;;;;5074315;28;20511;-58
2023/06/20 07:38:17;;;;;;;7.87;7.07;;;23.10;97.70;;;;;;5073858;28;20443;-58
2023/06/20 07:40:44;;;;;;;7.23;6.63;;;23.10;97.50;;;;;;5075201;28;20452;-61
2023/06/20 07:43:10;;;;;;;8.70;7.20;;;23.10;97.20;;;;;;5075900;28;20816;-59
2023/06/20 07:45:37;;;;;;;8.03;7.33;;;23.10;97.10;;;;;;5075086;28;20795;-59
2023/06/20 07:48:05;;;;;;;7.63;6.83;;;23.10;97.00;;;;;;5074431;28;20457;-59
2023/06/20 07:50:31;;;;;;;7.30;6.70;;;23.10;96.70;;;;;;5073799;28;20447;-61
2023/06/20 07:52:58;;;;;;;7.47;6.77;;;23.10;96.70;;;;;;5073251;28;20845;-59
2023/06/20 07:55:26;;;;;;;7.37;6.77;;;23.00;96.80;;;;;;5073554;28;20439;-59
2023/06/20 07:57:55;;;;;;;8.23;6.30;;;22.90;97.00;;;;;;5073505;28;20530;-58
2023/06/20 08:00:24;;;;;;;8.80;6.70;;;22.90;97.30;;;;;;5073194;28;21016;-60
2023/06/20 08:02:51;;;;;;;8.03;7.33;;;22.90;97.50;;;;;;5067531;22;20551;-60
2023/06/20 08:05:18;;;;;;;8.03;6.70;;;23.00;97.50;;;;;;5033553;28;20815;-59
2023/06/20 08:07:44;;;;;;;7.80;7.13;;;23.10;97.50;;;;;;5033958;28;20429;-59
2023/06/20 08:10:12;;;;;;;6.73;6.13;;;23.20;97.30;;;;;;5033999;28;20448;-59
2023/06/20 08:12:40;;;;;;;6.40;5.90;;;23.30;97.30;;;;;;5033608;28;20575;-59
2023/06/20 08:15:08;;;;;;;7.90;7.00;;;23.30;97.20;;;;;;5033578;28;20475;-60
2023/06/20 08:17:35;;;;;;;7.00;6.40;;;23.40;97.10;;;;;;5033322;28;20452;-59
2023/06/20 08:20:05;;;;;;;6.80;6.30;;;23.50;97.00;;;;;;5033546;28;20449;-59
2023/06/20 08:22:32;;;;;;;7.57;6.70;;;23.50;97.10;;;;;;5033676;28;20469;-60
2023/06/20 08:24:59;;;;;;;9.47;5.70;;;23.70;97.10;;;;;;5033013;28;20533;-59
2023/06/20 08:27:26;;;;;;;5.87;5.43;;;23.90;96.60;;;;;;5033245;28;20457;-59
2023/06/20 08:29:54;;;;;;;6.23;5.73;;;24.00;96.00;;;;;;5033031;28;20557;-58
2023/06/20 08:32:21;;;;;;;6.40;5.90;;;24.10;95.80;;;;;;5033290;28;20509;-58
2023/06/20 08:34:49;;;;;;;6.30;5.67;;;24.10;95.50;;;;;;5032965;28;20446;-58
2023/06/20 08:37:16;;;;;;;6.13;5.63;;;24.00;95.40;;;;;;5033545;28;20447;-58
2023/06/20 08:39:43;;;;;;;6.77;6.17;;;24.00;95.20;;;;;;5033422;28;20997;-58
2023/06/20 08:42:11;;;;;;;7.03;6.33;;;24.10;94.90;;;;;;5033638;28;20463;-59
2023/06/20 08:44:38;;;;;;;6.23;5.73;;;24.20;94.50;;;;;;5032795;28;20458;-58
2023/06/20 08:47:07;;;;;;;7.93;7.20;;;24.30;94.20;;;;;;5033063;28;20447;-58
2023/06/20 08:49:34;;;;;;;9.10;7.00;;;24.30;93.90;;;;;;5032953;28;20450;-58
2023/06/20 08:52:11;;;;;;;7.90;7.30;;;24.30;93.80;;;;;;5032694;28;20501;-59
2023/06/20 08:54:39;;;;;;;8.60;7.80;;;24.20;93.70;;;;;;5032863;28;20845;-60
2023/06/20 08:57:07;;;;;;;9.80;8.90;;;24.20;94.00;;;;;;5033971;28;20448;-59
2023/06/20 08:59:35;;;;;;;9.53;8.73;;;24.10;94.30;;;;;;5036658;28;20815;-58
2023/06/20 09:02:01;;;;;;;9.27;8.43;;;24.10;94.60;;;;;;5035959;28;20470;-58
2023/06/20 09:04:30;;;;;;;10.17;9.03;;;24.10;94.60;;;;;;5036356;28;20443;-60
2023/06/20 09:06:57;;;;;;;10.30;9.40;;;24.20;94.60;;;;;;5036565;28;20463;-58
2023/06/20 09:09:24;;;;;;;9.93;9.10;;;24.40;94.50;;;;;;5036523;28;20450;-59
2023/06/20 09:11:56;;;;;;;10.60;9.63;;;24.60;94.00;;;;;;5036266;28;20487;-59
2023/06/20 09:14:26;;;;;;;10.27;9.43;;;24.80;93.50;;;;;;5036582;28;20460;-59
2023/06/20 09:16:53;;;;;;;11.87;10.77;;;24.90;93.00;;;;;;5036356;28;20929;-60
2023/06/20 09:19:19;;;;;;;11.93;10.97;;;25.00;92.60;;;;;;5036244;28;20469;-59
2023/06/20 09:21:47;;;;;;;12.37;11.20;;;25.10;92.20;;;;;;5036139;28;20468;-61
2023/06/20 09:24:18;;;;;;;14.70;11.80;;;25.10;91.90;;;;;;5036579;28;20449;-59
2023/06/20 09:26:46;;;;;;;11.63;9.73;;;25.20;91.80;;;;;;5037133;28;20425;-60
2023/06/20 09:29:14;;;;;;;11.27;10.17;;;25.30;91.60;;;;;;5036519;28;20446;-60
2023/06/20 09:31:43;;;;;;;10.57;9.67;;;25.30;91.10;;;;;;5036107;28;20473;-59
2023/06/20 09:34:13;;;;;;;11.57;9.20;;;25.30;90.90;;;;;;5036956;28;20817;-59
2023/06/20 09:36:40;;;;;;;11.00;10.00;;;25.20;90.90;;;;;;5036309;28;20500;-59
2023/06/20 09:39:12;;;;;;;9.77;8.87;;;25.20;91.00;;;;;;5037786;28;20449;-61
2023/06/20 09:41:44;;;;;;;11.47;9.37;;;25.30;90.90;;;;;;5036517;28;20909;-59
2023/06/20 09:44:12;;;;;;;11.30;10.30;;;25.40;90.50;;;;;;5037577;28;20498;-60
2023/06/20 09:46:39;;;;;;;10.03;9.10;;;25.50;90.40;;;;;;5036537;28;20954;-59
2023/06/20 09:49:06;;;;;;;10.20;9.20;;;25.50;90.10;;;;;;5036413;28;20450;-60
2023/06/20 09:51:34;;;;;;;9.83;9.03;;;25.60;89.50;;;;;;5036451;28;20490;-59
2023/06/20 09:54:05;;;;;;;9.73;8.93;;;25.70;88.80;;;;;;5036569;28;20455;-58
2023/06/20 09:56:38;;;;;;;8.40;7.67;;;25.80;87.20;;;;;;5036238;28;20516;-61
2023/06/20 09:59:06;;;;;;;9.03;7.70;;;25.90;86.20;;;;;;5035396;28;20950;-60
2023/06/20 10:01:38;;;;;;;8.03;7.30;;;26.00;85.30;;;;;;5035643;28;20443;-60
2023/06/20 10:04:06;;;;;;;7.57;6.87;;;26.20;83.80;;;;;;5035384;28;20472;-60
2023/06/20 10:06:34;;;;;;;7.70;7.00;;;26.40;82.00;;;;;;5035283;28;20435;-59
2023/06/20 10:09:02;;;;;;;8.13;7.33;;;26.70;80.40;;;;;;5034683;28;20797;-59
2023/06/20 10:11:29;;;;;;;7.57;6.80;;;27.20;78.10;;;;;;5036001;28;20454;-59
2023/06/20 10:13:57;;;;;;;8.00;7.30;;;27.60;74.80;;;;;;5035417;28;20453;-58
2023/06/20 10:16:29;;;;;;;7.70;7.00;;;28.00;72.10;;;;;;5035124;28;20461;-57
2023/06/20 10:18:55;;;;;;;6.97;6.37;;;28.20;69.70;;;;;;5035826;28;20829;-60
2023/06/20 10:21:54;;;;;;;7.60;6.90;;;28.00;68.80;;;;;;5035092;28;20822;-60
2023/06/20 10:24:21;;;;;;;7.60;7.00;;;27.70;68.90;;;;;;5034716;28;20438;-58
2023/06/20 10:26:53;;;;;;;7.70;7.00;;;27.50;69.20;;;;;;5034477;28;20451;-59
2023/06/20 10:29:22;;;;;;;7.50;6.90;;;27.40;69.20;;;;;;5034282;28;20486;-59
2023/06/20 10:31:57;;;;;;;7.97;6.17;;;27.40;69.20;;;;;;5034576;28;20495;-59
2023/06/20 10:34:36;;;;;;;6.47;5.97;;;27.50;68.80;;;;;;5034746;28;20464;-59
2023/06/20 10:37:17;;;;;;;6.87;6.27;;;27.70;67.80;;;;;;5035123;28;20446;-58
2023/06/20 10:39:53;;;;;;;7.17;6.53;;;28.10;66.50;;;;;;5034448;28;20483;-59
2023/06/20 10:42:38;;;;;;;7.60;6.87;;;28.30;65.20;;;;;;5034858;28;20454;-58
2023/06/20 10:45:20;;;;;;;6.80;6.30;;;28.50;64.30;;;;;;5034947;28;20439;-59
2023/06/20 10:47:48;;;;;;;7.43;6.73;;;28.60;63.70;;;;;;5034281;28;20805;-58
2023/06/20 10:50:15;;;;;;;7.33;6.60;;;28.70;63.50;;;;;;5034651;28;20455;-59
2023/06/20 10:52:42;;;;;;;6.93;6.43;;;28.80;63.00;;;;;;5034449;28;20491;-59
2023/06/20 10:55:09;;;;;;;7.83;7.13;;;29.00;62.50;;;;;;5034871;28;20448;-60
2023/06/20 10:57:36;;;;;;;7.93;7.33;;;29.10;62.00;;;;;;5035145;28;20474;-58
2023/06/20 11:00:14;;;;;;;7.10;6.50;;;29.20;61.80;;;;;;5035239;28;20487;-60
2023/06/20 11:02:43;;;;;;;7.30;6.70;;;29.30;61.40;;;;;;5034548;28;20488;-60
2023/06/20 11:05:10;;;;;;;7.27;6.67;;;29.40;61.20;;;;;;5034620;28;20493;-59
2023/06/20 11:07:51;;;;;;;7.10;6.53;;;29.60;60.80;;;;;;5035135;28;20449;-60
2023/06/20 11:10:20;;;;;;;7.50;6.90;;;29.90;60.00;;;;;;5035131;28;20490;-57
2023/06/20 11:12:46;;;;;;;7.40;6.80;;;30.30;58.90;;;;;;5033963;28;20543;-58
2023/06/20 11:15:25;;;;;;;7.37;6.73;;;30.50;57.90;;;;;;5035076;28;20450;-59
2023/06/20 11:17:54;;;;;;;8.07;7.47;;;30.50;57.10;;;;;;5034920;28;20929;-59
2023/06/20 11:20:25;;;;;;;7.93;7.33;;;30.50;56.70;;;;;;5033964;28;20437;-59
2023/06/20 11:22:54;;;;;;;8.00;7.30;;;30.60;56.80;;;;;;5034918;28;20468;-60
2023/06/20 11:25:29;;;;;;;8.20;7.50;;;30.60;56.00;;;;;;5034097;28;20452;-59
2023/06/20 11:27:56;;;;;;;7.10;6.57;;;30.40;56.10;;;;;;5034221;28;20538;-59
2023/06/20 11:30:30;;;;;;;7.73;7.03;;;30.30;56.40;;;;;;5034065;28;20438;-59
2023/06/20 11:33:03;;;;;;;8.43;7.73;;;30.40;56.30;;;;;;5034073;28;20504;-60
2023/06/20 11:35:54;;;;;;;9.90;9.10;;;30.60;55.80;;;;;;5033802;28;20458;-58
2023/06/20 11:38:23;;;;;;;9.73;8.77;;;30.70;55.00;;;;;;5018341;28;20953;-58
2023/06/20 11:41:01;;;;;;;8.43;7.83;;;30.50;55.10;;;;;;5033446;28;20439;-58
2023/06/20 11:43:34;;;;;;;7.90;7.40;;;30.40;55.50;;;;;;5033339;28;20838;-58
2023/06/20 11:46:02;;;;;;;9.90;9.10;;;30.30;55.10;;;;;;5033536;28;20420;-59
2023/06/20 11:48:30;;;;;;;9.93;9.20;;;30.20;54.80;;;;;;5033598;28;20533;-59
2023/06/20 11:50:58;;;;;;;10.93;9.90;;;30.20;55.00;;;;;;5033415;28;20475;-59
2023/06/20 11:53:28;;;;;;;12.27;11.27;;;30.30;55.00;;;;;;5033541;28;20494;-60
2023/06/20 11:55:57;;;;;;;12.90;11.73;;;30.60;54.70;;;;;;5034332;28;20501;-60
2023/06/20 11:58:24;;;;;;;13.20;12.20;;;30.70;54.30;;;;;;5033819;28;20811;-60
2023/06/20 12:01:04;;;;;;;13.93;12.60;;;30.80;54.10;;;;;;5033319;28;20458;-58
2023/06/20 12:03:32;;;;;;;15.17;13.77;;;30.80;54.20;;;;;;5033960;28;20474;-59
2023/06/20 12:05:59;;;;;;;15.97;14.77;;;31.30;53.60;;;;;;5033482;28;20448;-60
2023/06/20 12:08:31;;;;;;;15.93;14.73;;;31.40;53.20;;;;;;5033582;28;20516;-58
2023/06/20 12:11:00;;;;;;;14.47;13.27;;;31.50;53.20;;;;;;5033632;28;20979;-59
2023/06/20 12:13:26;;;;;;;14.60;13.40;;;31.60;53.10;;;;;;5034049;28;20498;-60
2023/06/20 12:15:53;;;;;;;13.47;12.27;;;31.60;52.70;;;;;;5034222;28;20457;-59
2023/06/20 12:18:20;;;;;;;13.53;12.27;;;31.60;52.70;;;;;;5033539;28;20948;-58
2023/06/20 12:20:48;;;;;;;14.57;13.37;;;31.90;52.20;;;;;;5033409;28;20963;-57
2023/06/20 12:23:15;;;;;;;12.97;11.97;;;32.20;51.40;;;;;;5033328;28;20460;-59
2023/06/20 12:25:42;;;;;;;11.77;10.97;;;32.50;51.00;;;;;;5033932;28;20475;-57
2023/06/20 12:28:09;;;;;;;10.27;9.57;;;32.90;49.90;;;;;;5033993;28;20946;-59
2023/06/20 12:30:36;;;;;;;8.50;7.87;;;32.80;49.30;;;;;;5034138;28;20502;-59
2023/06/20 12:33:02;;;;;;;8.33;7.73;;;32.40;49.50;;;;;;5036909;28;20494;-58
2023/06/20 12:35:29;;;;;;;8.60;7.83;;;32.10;50.00;;;;;;5038092;28;20546;-59
2023/06/20 12:37:58;;;;;;;7.67;6.97;;;32.00;50.10;;;;;;5037391;28;20454;-59
2023/06/20 12:40:24;;;;;;;7.00;6.50;;;32.10;49.80;;;;;;5037008;28;20448;-60
2023/06/20 12:42:51;;;;;;;8.10;7.40;;;32.20;49.50;;;;;;5037391;28;20986;-60
2023/06/20 12:45:18;;;;;;;6.30;5.80;;;32.30;49.40;;;;;;5037125;28;20491;-60